sensor_id;sensor_type;location;lat;lon;timestamp;temperature;humidity
12477;DHT22;6303;51.504;6.300;2023-07-20T00:01:52;27.70;54.50
12477;DHT22;6303;51.504;6.300;2023-07-20T00:04:21;27.70;54.50
12477;DHT22;6303;51.504;6.300;2023-07-20T00:06:48;27.70;54.40
12477;DHT22;6303;51.504;6.300;2023-07-20T00:09:15;27.60;54.40
12477;DHT22;6303;51.504;6.300;2023-07-20T00:11:48;27.60;54.40
12477;DHT22;6303;51.504;6.300;2023-07-20T00:14:16;27.60;54.60
12477;DHT22;6303;51.504;6.300;2023-07-20T00:16:45;27.60;54.50
12477;DHT22;6303;51.504;6.300;2023-07-20T00:19:15;27.60;54.70
12477;DHT22;6303;51.504;6.300;2023-07-20T00:21:42;27.60;54.50
12477;DHT22;6303;51.504;6.300;2023-07-20T00:24:09;27.60;54.50
12477;DHT22;6303;51.504;6.300;2023-07-20T00:26:36;27.50;54.60
12477;DHT22;6303;51.504;6.300;2023-07-20T00:29:03;27.50;54.70
12477;DHT22;6303;51.504;6.300;2023-07-20T00:31:31;27.50;54.80
12477;DHT22;6303;51.504;6.300;2023-07-20T00:33:59;27.50;54.80
12477;DHT22;6303;51.504;6.300;2023-07-20T00:36:26;27.50;54.90
12477;DHT22;6303;51.504;6.300;2023-07-20T00:38:53;27.50;55.10
12477;DHT22;6303;51.504;6.300;2023-07-20T00:41:20;27.50;55.10
12477;DHT22;6303;51.504;6.300;2023-07-20T00:43:47;27.50;55.10
12477;DHT22;6303;51.504;6.300;2023-07-20T00:46:14;27.50;55.20
12477;DHT22;6303;51.504;6.300;2023-07-20T00:48:41;27.50;55.30
12477;DHT22;6303;51.504;6.300;2023-07-20T00:51:10;27.50;55.40
12477;DHT22;6303;51.504;6.300;2023-07-20T00:53:38;27.50;55.40
12477;DHT22;6303;51.504;6.300;2023-07-20T00:56:06;27.50;55.50
12477;DHT22;6303;51.504;6.300;2023-07-20T00:58:35;27.50;55.50
12477;DHT22;6303;51.504;6.300;2023-07-20T01:01:02;27.50;55.50
12477;DHT22;6303;51.504;6.300;2023-07-20T01:03:29;27.50;55.50
12477;DHT22;6303;51.504;6.300;2023-07-20T01:06:13;27.40;55.30
12477;DHT22;6303;51.504;6.300;2023-07-20T01:08:46;27.40;55.30
12477;DHT22;6303;51.504;6.300;2023-07-20T01:11:18;27.40;55.30
12477;DHT22;6303;51.504;6.300;2023-07-20T01:13:46;27.40;55.30
12477;DHT22;6303;51.504;6.300;2023-07-20T01:16:13;27.50;55.40
12477;DHT22;6303;51.504;6.300;2023-07-20T01:18:40;27.40;55.30
12477;DHT22;6303;51.504;6.300;2023-07-20T01:21:09;27.50;55.40
12477;DHT22;6303;51.504;6.300;2023-07-20T01:24:24;27.40;55.30
12477;DHT22;6303;51.504;6.300;2023-07-20T01:30:20;27.40;55.30
12477;DHT22;6303;51.504;6.300;2023-07-20T01:32:54;27.40;55.30
12477;DHT22;6303;51.504;6.300;2023-07-20T01:35:24;27.40;55.30
12477;DHT22;6303;51.504;6.300;2023-07-20T01:37:53;27.40;55.30
12477;DHT22;6303;51.504;6.300;2023-07-20T01:40:22;27.40;55.30
12477;DHT22;6303;51.504;6.300;2023-07-20T01:42:52;27.40;55.30
12477;DHT22;6303;51.504;6.300;2023-07-20T01:45:19;27.40;55.30
12477;DHT22;6303;51.504;6.300;2023-07-20T01:47:46;26.90;55.00
12477;DHT22;6303;51.504;6.300;2023-07-20T01:50:15;27.40;55.30
12477;DHT22;6303;51.504;6.300;2023-07-20T01:52:42;27.40;55.30
12477;DHT22;6303;51.504;6.300;2023-07-20T01:55:09;27.40;55.30
12477;DHT22;6303;51.504;6.300;2023-07-20T01:57:36;27.40;55.40
12477;DHT22;6303;51.504;6.300;2023-07-20T02:00:04;27.40;55.40
12477;DHT22;6303;51.504;6.300;2023-07-20T02:02:41;27.40;55.30
12477;DHT22;6303;51.504;6.300;2023-07-20T02:05:08;27.40;55.30
12477;DHT22;6303;51.504;6.300;2023-07-20T02:07:36;27.40;55.30
12477;DHT22;6303;51.504;6.300;2023-07-20T02:10:04;27.40;55.40
12477;DHT22;6303;51.504;6.300;2023-07-20T02:12:31;27.40;55.40
12477;DHT22;6303;51.504;6.300;2023-07-20T02:14:58;27.40;55.40
12477;DHT22;6303;51.504;6.300;2023-07-20T02:17:26;27.40;55.40
12477;DHT22;6303;51.504;6.300;2023-07-20T02:19:53;27.40;55.40
12477;DHT22;6303;51.504;6.300;2023-07-20T02:22:20;27.40;55.40
12477;DHT22;6303;51.504;6.300;2023-07-20T02:24:49;27.40;55.40
12477;DHT22;6303;51.504;6.300;2023-07-20T02:27:16;27.40;55.40
12477;DHT22;6303;51.504;6.300;2023-07-20T02:29:43;27.40;55.40
12477;DHT22;6303;51.504;6.300;2023-07-20T02:32:11;27.40;55.50
12477;DHT22;6303;51.504;6.300;2023-07-20T02:34:38;27.40;55.50
12477;DHT22;6303;51.504;6.300;2023-07-20T02:37:05;27.40;55.50
12477;DHT22;6303;51.504;6.300;2023-07-20T02:39:32;27.40;55.50
12477;DHT22;6303;51.504;6.300;2023-07-20T02:42:01;27.40;55.50
12477;DHT22;6303;51.504;6.300;2023-07-20T02:44:28;27.30;55.40
12477;DHT22;6303;51.504;6.300;2023-07-20T02:46:55;27.40;55.50
12477;DHT22;6303;51.504;6.300;2023-07-20T02:49:22;27.40;55.50
12477;DHT22;6303;51.504;6.300;2023-07-20T02:51:50;27.40;55.50
12477;DHT22;6303;51.504;6.300;2023-07-20T02:54:17;27.40;55.50
12477;DHT22;6303;51.504;6.300;2023-07-20T02:56:44;27.40;55.50
12477;DHT22;6303;51.504;6.300;2023-07-20T02:59:12;27.40;55.50
12477;DHT22;6303;51.504;6.300;2023-07-20T03:01:39;27.30;55.50
12477;DHT22;6303;51.504;6.300;2023-07-20T03:04:08;27.40;55.50
12477;DHT22;6303;51.504;6.300;2023-07-20T03:06:36;27.40;55.60
12477;DHT22;6303;51.504;6.300;2023-07-20T03:09:04;27.40;55.60
12477;DHT22;6303;51.504;6.300;2023-07-20T03:11:32;27.40;55.60
12477;DHT22;6303;51.504;6.300;2023-07-20T03:14:00;27.30;55.60
12477;DHT22;6303;51.504;6.300;2023-07-20T03:16:29;27.40;55.70
12477;DHT22;6303;51.504;6.300;2023-07-20T03:19:00;27.40;55.70
12477;DHT22;6303;51.504;6.300;2023-07-20T03:21:27;27.40;55.70
12477;DHT22;6303;51.504;6.300;2023-07-20T03:23:54;27.40;55.70
12477;DHT22;6303;51.504;6.300;2023-07-20T03:26:22;27.30;55.60
12477;DHT22;6303;51.504;6.300;2023-07-20T03:28:49;27.40;55.70
12477;DHT22;6303;51.504;6.300;2023-07-20T03:31:16;27.40;55.70
12477;DHT22;6303;51.504;6.300;2023-07-20T03:33:45;27.40;55.70
12477;DHT22;6303;51.504;6.300;2023-07-20T03:36:12;27.40;55.70
12477;DHT22;6303;51.504;6.300;2023-07-20T03:38:39;27.30;55.80
12477;DHT22;6303;51.504;6.300;2023-07-20T03:41:06;27.30;55.70
12477;DHT22;6303;51.504;6.300;2023-07-20T03:43:33;27.30;55.70
12477;DHT22;6303;51.504;6.300;2023-07-20T03:46:00;27.30;55.80
12477;DHT22;6303;51.504;6.300;2023-07-20T03:48:33;27.30;55.80
12477;DHT22;6303;51.504;6.300;2023-07-20T03:51:01;27.30;55.80
12477;DHT22;6303;51.504;6.300;2023-07-20T03:53:28;27.30;55.80
12477;DHT22;6303;51.504;6.300;2023-07-20T03:55:56;27.30;55.80
12477;DHT22;6303;51.504;6.300;2023-07-20T03:58:23;27.30;55.80
12477;DHT22;6303;51.504;6.300;2023-07-20T04:00:51;27.30;55.90
12477;DHT22;6303;51.504;6.300;2023-07-20T04:03:19;27.30;55.90
12477;DHT22;6303;51.504;6.300;2023-07-20T04:05:47;27.30;55.90
12477;DHT22;6303;51.504;6.300;2023-07-20T04:08:15;27.30;55.90
12477;DHT22;6303;51.504;6.300;2023-07-20T04:10:43;27.30;55.90
12477;DHT22;6303;51.504;6.300;2023-07-20T04:13:11;27.30;55.90
12477;DHT22;6303;51.504;6.300;2023-07-20T04:15:38;27.30;55.90
12477;DHT22;6303;51.504;6.300;2023-07-20T04:18:05;27.30;55.90
12477;DHT22;6303;51.504;6.300;2023-07-20T04:20:32;27.30;55.90
12477;DHT22;6303;51.504;6.300;2023-07-20T04:22:59;27.30;55.90
12477;DHT22;6303;51.504;6.300;2023-07-20T04:25:27;27.30;56.00
12477;DHT22;6303;51.504;6.300;2023-07-20T04:27:55;27.30;55.90
12477;DHT22;6303;51.504;6.300;2023-07-20T04:30:22;27.30;56.00
12477;DHT22;6303;51.504;6.300;2023-07-20T04:32:49;27.30;56.00
12477;DHT22;6303;51.504;6.300;2023-07-20T04:38:07;27.30;56.10
12477;DHT22;6303;51.504;6.300;2023-07-20T04:40:36;27.30;56.00
12477;DHT22;6303;51.504;6.300;2023-07-20T04:43:04;27.30;56.10
12477;DHT22;6303;51.504;6.300;2023-07-20T04:45:31;27.40;56.50
12477;DHT22;6303;51.504;6.300;2023-07-20T04:47:58;27.30;57.10
12477;DHT22;6303;51.504;6.300;2023-07-20T04:50:26;27.40;57.30
12477;DHT22;6303;51.504;6.300;2023-07-20T04:52:53;27.40;57.20
12477;DHT22;6303;51.504;6.300;2023-07-20T04:55:22;27.40;57.20
12477;DHT22;6303;51.504;6.300;2023-07-20T04:57:51;27.40;57.10
12477;DHT22;6303;51.504;6.300;2023-07-20T05:00:20;27.40;57.00
12477;DHT22;6303;51.504;6.300;2023-07-20T05:02:47;27.50;56.90
12477;DHT22;6303;51.504;6.300;2023-07-20T05:05:15;27.50;56.80
12477;DHT22;6303;51.504;6.300;2023-07-20T05:07:42;27.50;56.70
12477;DHT22;6303;51.504;6.300;2023-07-20T05:10:10;28.70;57.50
12477;DHT22;6303;51.504;6.300;2023-07-20T05:12:38;27.60;56.70
12477;DHT22;6303;51.504;6.300;2023-07-20T05:15:07;27.60;56.70
12477;DHT22;6303;51.504;6.300;2023-07-20T05:17:36;27.60;56.70
12477;DHT22;6303;51.504;6.300;2023-07-20T05:20:06;27.60;56.70
12477;DHT22;6303;51.504;6.300;2023-07-20T05:22:35;27.60;56.60
12477;DHT22;6303;51.504;6.300;2023-07-20T05:25:07;27.60;56.70
12477;DHT22;6303;51.504;6.300;2023-07-20T05:27:36;27.60;57.30
12477;DHT22;6303;51.504;6.300;2023-07-20T05:30:04;27.60;58.60
12477;DHT22;6303;51.504;6.300;2023-07-20T05:32:33;27.70;59.10
12477;DHT22;6303;51.504;6.300;2023-07-20T05:35:00;27.70;59.00
12477;DHT22;6303;51.504;6.300;2023-07-20T05:37:27;27.70;58.90
12477;DHT22;6303;51.504;6.300;2023-07-20T05:39:55;27.70;58.40
12477;DHT22;6303;51.504;6.300;2023-07-20T05:42:22;27.80;58.10
12477;DHT22;6303;51.504;6.300;2023-07-20T05:44:49;27.80;57.80
12477;DHT22;6303;51.504;6.300;2023-07-20T05:47:15;27.80;57.70
12477;DHT22;6303;51.504;6.300;2023-07-20T05:49:44;27.80;57.50
12477;DHT22;6303;51.504;6.300;2023-07-20T05:52:11;27.80;57.40
12477;DHT22;6303;51.504;6.300;2023-07-20T05:54:38;27.90;57.30
12477;DHT22;6303;51.504;6.300;2023-07-20T05:57:05;27.90;57.20
12477;DHT22;6303;51.504;6.300;2023-07-20T05:59:32;27.90;57.00
12477;DHT22;6303;51.504;6.300;2023-07-20T06:01:59;28.00;56.90
12477;DHT22;6303;51.504;6.300;2023-07-20T06:04:26;28.00;56.70
12477;DHT22;6303;51.504;6.300;2023-07-20T06:06:55;28.00;56.50
12477;DHT22;6303;51.504;6.300;2023-07-20T06:09:22;28.00;56.30
12477;DHT22;6303;51.504;6.300;2023-07-20T06:11:49;27.90;56.00
12477;DHT22;6303;51.504;6.300;2023-07-20T06:14:16;27.90;55.80
12477;DHT22;6303;51.504;6.300;2023-07-20T06:16:44;27.80;55.50
12477;DHT22;6303;51.504;6.300;2023-07-20T06:19:11;27.80;55.70
12477;DHT22;6303;51.504;6.300;2023-07-20T06:21:38;27.70;55.70
12477;DHT22;6303;51.504;6.300;2023-07-20T06:24:07;27.70;55.50
12477;DHT22;6303;51.504;6.300;2023-07-20T06:26:34;27.60;55.50
12477;DHT22;6303;51.504;6.300;2023-07-20T06:29:04;27.60;55.70
12477;DHT22;6303;51.504;6.300;2023-07-20T06:31:31;27.60;55.40
12477;DHT22;6303;51.504;6.300;2023-07-20T06:33:59;27.50;55.40
12477;DHT22;6303;51.504;6.300;2023-07-20T06:36:27;27.50;55.30
12477;DHT22;6303;51.504;6.300;2023-07-20T06:38:54;27.50;55.30
12477;DHT22;6303;51.504;6.300;2023-07-20T06:41:22;27.50;55.30
12477;DHT22;6303;51.504;6.300;2023-07-20T06:43:50;27.50;55.20
12477;DHT22;6303;51.504;6.300;2023-07-20T06:46:18;27.50;55.20
12477;DHT22;6303;51.504;6.300;2023-07-20T06:48:45;27.50;55.10
12477;DHT22;6303;51.504;6.300;2023-07-20T06:51:12;27.60;55.30
12477;DHT22;6303;51.504;6.300;2023-07-20T06:53:39;27.60;54.60
12477;DHT22;6303;51.504;6.300;2023-07-20T06:56:06;27.60;54.50
12477;DHT22;6303;51.504;6.300;2023-07-20T06:58:36;27.60;54.20
12477;DHT22;6303;51.504;6.300;2023-07-20T07:01:05;29.20;55.10
12477;DHT22;6303;51.504;6.300;2023-07-20T07:03:32;27.50;53.90
12477;DHT22;6303;51.504;6.300;2023-07-20T07:05:59;27.50;54.00
12477;DHT22;6303;51.504;6.300;2023-07-20T07:08:26;27.40;54.10
12477;DHT22;6303;51.504;6.300;2023-07-20T07:10:53;27.40;54.10
12477;DHT22;6303;51.504;6.300;2023-07-20T07:13:20;27.40;54.10
12477;DHT22;6303;51.504;6.300;2023-07-20T07:15:49;27.40;54.00
12477;DHT22;6303;51.504;6.300;2023-07-20T07:18:16;27.40;54.00
12477;DHT22;6303;51.504;6.300;2023-07-20T07:20:50;27.40;54.00
12477;DHT22;6303;51.504;6.300;2023-07-20T07:23:18;27.50;54.10
12477;DHT22;6303;51.504;6.300;2023-07-20T07:25:45;27.50;54.80
12477;DHT22;6303;51.504;6.300;2023-07-20T07:28:13;27.60;54.10
12477;DHT22;6303;51.504;6.300;2023-07-20T07:30:40;27.70;54.10
12477;DHT22;6303;51.504;6.300;2023-07-20T07:33:09;27.80;53.90
12477;DHT22;6303;51.504;6.300;2023-07-20T07:35:36;27.80;53.70
12477;DHT22;6303;51.504;6.300;2023-07-20T07:38:03;27.90;53.60
12477;DHT22;6303;51.504;6.300;2023-07-20T07:40:31;28.00;53.50
12477;DHT22;6303;51.504;6.300;2023-07-20T07:42:58;28.00;53.40
12477;DHT22;6303;51.504;6.300;2023-07-20T07:45:25;28.10;53.50
12477;DHT22;6303;51.504;6.300;2023-07-20T07:47:52;28.10;53.40
12477;DHT22;6303;51.504;6.300;2023-07-20T07:50:21;28.20;53.20
12477;DHT22;6303;51.504;6.300;2023-07-20T07:52:48;28.20;53.10
12477;DHT22;6303;51.504;6.300;2023-07-20T07:55:15;28.30;52.90
12477;DHT22;6303;51.504;6.300;2023-07-20T07:57:43;28.30;52.90
12477;DHT22;6303;51.504;6.300;2023-07-20T08:00:11;28.30;52.90
12477;DHT22;6303;51.504;6.300;2023-07-20T08:02:40;28.30;52.80
12477;DHT22;6303;51.504;6.300;2023-07-20T08:05:08;28.40;52.70
12477;DHT22;6303;51.504;6.300;2023-07-20T08:07:37;28.40;52.50
12477;DHT22;6303;51.504;6.300;2023-07-20T08:10:06;28.50;52.40
12477;DHT22;6303;51.504;6.300;2023-07-20T08:12:34;28.50;52.20
12477;DHT22;6303;51.504;6.300;2023-07-20T08:15:01;28.60;52.00
12477;DHT22;6303;51.504;6.300;2023-07-20T08:17:28;28.60;52.00
12477;DHT22;6303;51.504;6.300;2023-07-20T08:19:55;28.60;52.00
12477;DHT22;6303;51.504;6.300;2023-07-20T08:22:22;28.70;52.10
12477;DHT22;6303;51.504;6.300;2023-07-20T08:24:50;28.70;51.60
12477;DHT22;6303;51.504;6.300;2023-07-20T08:27:17;28.70;51.50
12477;DHT22;6303;51.504;6.300;2023-07-20T08:29:44;28.70;51.60
12477;DHT22;6303;51.504;6.300;2023-07-20T08:32:11;28.80;50.90
12477;DHT22;6303;51.504;6.300;2023-07-20T08:34:39;28.80;50.60
12477;DHT22;6303;51.504;6.300;2023-07-20T08:37:06;28.80;50.60
12477;DHT22;6303;51.504;6.300;2023-07-20T08:39:35;28.90;50.30
12477;DHT22;6303;51.504;6.300;2023-07-20T08:42:04;28.90;49.90
12477;DHT22;6303;51.504;6.300;2023-07-20T08:44:33;28.90;50.00
12477;DHT22;6303;51.504;6.300;2023-07-20T08:47:01;28.90;50.10
12477;DHT22;6303;51.504;6.300;2023-07-20T08:49:30;28.80;50.20
12477;DHT22;6303;51.504;6.300;2023-07-20T08:51:58;28.70;50.20
12477;DHT22;6303;51.504;6.300;2023-07-20T08:54:29;28.60;50.10
12477;DHT22;6303;51.504;6.300;2023-07-20T08:56:58;28.50;50.00
12477;DHT22;6303;51.504;6.300;2023-07-20T08:59:30;28.40;49.80
12477;DHT22;6303;51.504;6.300;2023-07-20T09:01:58;28.40;49.80
12477;DHT22;6303;51.504;6.300;2023-07-20T09:04:26;28.40;49.90
12477;DHT22;6303;51.504;6.300;2023-07-20T09:06:53;28.50;49.80
12477;DHT22;6303;51.504;6.300;2023-07-20T09:09:20;28.50;49.30
12477;DHT22;6303;51.504;6.300;2023-07-20T09:11:49;28.60;49.10
12477;DHT22;6303;51.504;6.300;2023-07-20T09:14:16;28.70;49.10
12477;DHT22;6303;51.504;6.300;2023-07-20T09:16:52;28.70;49.00
12477;DHT22;6303;51.504;6.300;2023-07-20T09:19:21;28.70;48.70
12477;DHT22;6303;51.504;6.300;2023-07-20T09:21:50;28.70;48.50
12477;DHT22;6303;51.504;6.300;2023-07-20T09:24:18;28.70;48.50
12477;DHT22;6303;51.504;6.300;2023-07-20T09:26:47;28.60;48.60
12477;DHT22;6303;51.504;6.300;2023-07-20T09:29:18;28.60;48.50
12477;DHT22;6303;51.504;6.300;2023-07-20T09:31:58;28.70;49.00
12477;DHT22;6303;51.504;6.300;2023-07-20T09:34:25;28.70;49.00
12477;DHT22;6303;51.504;6.300;2023-07-20T09:36:52;28.80;48.60
12477;DHT22;6303;51.504;6.300;2023-07-20T09:39:20;28.80;48.60
12477;DHT22;6303;51.504;6.300;2023-07-20T09:41:47;28.90;48.80
12477;DHT22;6303;51.504;6.300;2023-07-20T09:44:15;28.90;48.40
12477;DHT22;6303;51.504;6.300;2023-07-20T09:46:44;28.90;47.90
12477;DHT22;6303;51.504;6.300;2023-07-20T09:49:13;29.00;48.10
12477;DHT22;6303;51.504;6.300;2023-07-20T09:51:41;29.00;48.10
12477;DHT22;6303;51.504;6.300;2023-07-20T09:54:08;28.90;47.80
12477;DHT22;6303;51.504;6.300;2023-07-20T09:56:36;28.90;48.00
12477;DHT22;6303;51.504;6.300;2023-07-20T09:59:04;28.80;48.30
12477;DHT22;6303;51.504;6.300;2023-07-20T10:01:32;29.10;48.50
12477;DHT22;6303;51.504;6.300;2023-07-20T10:04:03;28.90;48.20
12477;DHT22;6303;51.504;6.300;2023-07-20T10:06:33;29.00;48.80
12477;DHT22;6303;51.504;6.300;2023-07-20T10:09:02;29.00;48.00
12477;DHT22;6303;51.504;6.300;2023-07-20T10:11:35;29.00;47.90
12477;DHT22;6303;51.504;6.300;2023-07-20T10:14:03;29.00;47.70
12477;DHT22;6303;51.504;6.300;2023-07-20T10:16:35;28.90;47.80
12477;DHT22;6303;51.504;6.300;2023-07-20T10:19:05;28.90;48.10
12477;DHT22;6303;51.504;6.300;2023-07-20T10:21:40;28.80;48.30
12477;DHT22;6303;51.504;6.300;2023-07-20T10:24:07;28.80;48.40
12477;DHT22;6303;51.504;6.300;2023-07-20T10:26:37;28.70;48.50
12477;DHT22;6303;51.504;6.300;2023-07-20T10:29:04;28.70;48.50
12477;DHT22;6303;51.504;6.300;2023-07-20T10:31:32;28.80;48.40
12477;DHT22;6303;51.504;6.300;2023-07-20T10:34:00;28.80;48.20
12477;DHT22;6303;51.504;6.300;2023-07-20T10:36:28;28.80;48.10
12477;DHT22;6303;51.504;6.300;2023-07-20T10:38:57;28.90;48.10
12477;DHT22;6303;51.504;6.300;2023-07-20T10:41:28;28.90;48.10
12477;DHT22;6303;51.504;6.300;2023-07-20T10:44:01;29.00;49.00
12477;DHT22;6303;51.504;6.300;2023-07-20T10:46:42;29.00;52.20
12477;DHT22;6303;51.504;6.300;2023-07-20T10:49:10;29.10;50.20
12477;DHT22;6303;51.504;6.300;2023-07-20T10:51:40;29.10;49.60
12477;DHT22;6303;51.504;6.300;2023-07-20T10:54:33;29.10;49.10
12477;DHT22;6303;51.504;6.300;2023-07-20T10:57:22;29.10;49.00
12477;DHT22;6303;51.504;6.300;2023-07-20T10:59:51;29.10;48.60
12477;DHT22;6303;51.504;6.300;2023-07-20T11:02:19;29.10;48.20
12477;DHT22;6303;51.504;6.300;2023-07-20T11:04:47;29.10;48.40
12477;DHT22;6303;51.504;6.300;2023-07-20T11:07:35;29.10;48.50
12477;DHT22;6303;51.504;6.300;2023-07-20T11:10:14;29.20;48.30
12477;DHT22;6303;51.504;6.300;2023-07-20T11:12:41;29.10;48.00
12477;DHT22;6303;51.504;6.300;2023-07-20T11:15:44;29.10;47.40
12477;DHT22;6303;51.504;6.300;2023-07-20T11:18:12;29.10;46.70
12477;DHT22;6303;51.504;6.300;2023-07-20T11:20:40;29.00;46.60
12477;DHT22;6303;51.504;6.300;2023-07-20T11:23:09;29.10;46.80
12477;DHT22;6303;51.504;6.300;2023-07-20T11:25:38;29.10;46.90
12477;DHT22;6303;51.504;6.300;2023-07-20T11:28:08;29.10;47.10
12477;DHT22;6303;51.504;6.300;2023-07-20T11:30:37;29.00;47.20
12477;DHT22;6303;51.504;6.300;2023-07-20T11:33:04;29.10;47.20
12477;DHT22;6303;51.504;6.300;2023-07-20T11:35:35;29.10;47.10
12477;DHT22;6303;51.504;6.300;2023-07-20T11:38:03;29.10;47.10
12477;DHT22;6303;51.504;6.300;2023-07-20T11:40:33;29.10;47.20
12477;DHT22;6303;51.504;6.300;2023-07-20T11:43:01;29.20;47.30
12477;DHT22;6303;51.504;6.300;2023-07-20T11:45:28;29.10;46.90
12477;DHT22;6303;51.504;6.300;2023-07-20T11:47:58;29.10;46.70
12477;DHT22;6303;51.504;6.300;2023-07-20T11:50:26;29.50;46.80
12477;DHT22;6303;51.504;6.300;2023-07-20T11:52:53;29.10;46.70
12477;DHT22;6303;51.504;6.300;2023-07-20T11:55:20;28.30;45.60
12477;DHT22;6303;51.504;6.300;2023-07-20T11:58:02;29.10;46.20
12477;DHT22;6303;51.504;6.300;2023-07-20T12:00:30;29.10;46.00
12477;DHT22;6303;51.504;6.300;2023-07-20T12:02:57;29.10;45.80
12477;DHT22;6303;51.504;6.300;2023-07-20T12:05:25;29.00;45.80
12477;DHT22;6303;51.504;6.300;2023-07-20T12:07:52;29.00;46.00
12477;DHT22;6303;51.504;6.300;2023-07-20T12:10:25;29.00;46.00
12477;DHT22;6303;51.504;6.300;2023-07-20T12:12:52;29.00;46.20
12477;DHT22;6303;51.504;6.300;2023-07-20T12:15:22;29.00;46.40
12477;DHT22;6303;51.504;6.300;2023-07-20T12:17:51;29.00;46.30
12477;DHT22;6303;51.504;6.300;2023-07-20T12:20:26;28.90;46.30
12477;DHT22;6303;51.504;6.300;2023-07-20T12:22:56;28.90;46.40
12477;DHT22;6303;51.504;6.300;2023-07-20T12:25:28;28.90;46.00
12477;DHT22;6303;51.504;6.300;2023-07-20T12:28:00;28.10;45.50
12477;DHT22;6303;51.504;6.300;2023-07-20T12:30:29;28.90;46.00
12477;DHT22;6303;51.504;6.300;2023-07-20T12:32:58;28.90;45.70
12477;DHT22;6303;51.504;6.300;2023-07-20T12:35:25;28.90;45.60
12477;DHT22;6303;51.504;6.300;2023-07-20T12:37:52;28.80;45.90
12477;DHT22;6303;51.504;6.300;2023-07-20T12:40:20;28.80;46.10
12477;DHT22;6303;51.504;6.300;2023-07-20T12:42:47;28.80;46.30
12477;DHT22;6303;51.504;6.300;2023-07-20T12:45:14;28.80;46.00
12477;DHT22;6303;51.504;6.300;2023-07-20T12:47:43;28.80;46.00
12477;DHT22;6303;51.504;6.300;2023-07-20T12:50:10;28.80;45.60
12477;DHT22;6303;51.504;6.300;2023-07-20T12:52:38;28.80;45.60
12477;DHT22;6303;51.504;6.300;2023-07-20T12:55:06;28.80;45.40
12477;DHT22;6303;51.504;6.300;2023-07-20T12:57:34;28.80;45.40
12477;DHT22;6303;51.504;6.300;2023-07-20T13:00:02;28.80;45.50
12477;DHT22;6303;51.504;6.300;2023-07-20T13:02:30;28.80;45.50
12477;DHT22;6303;51.504;6.300;2023-07-20T13:04:59;28.80;45.50
12477;DHT22;6303;51.504;6.300;2023-07-20T13:07:30;28.70;45.10
12477;DHT22;6303;51.504;6.300;2023-07-20T13:09:58;28.70;45.10
12477;DHT22;6303;51.504;6.300;2023-07-20T13:12:26;28.70;45.10
12477;DHT22;6303;51.504;6.300;2023-07-20T13:14:54;28.70;45.00
12477;DHT22;6303;51.504;6.300;2023-07-20T13:17:22;29.20;45.30
12477;DHT22;6303;51.504;6.300;2023-07-20T13:19:49;28.70;44.90
12477;DHT22;6303;51.504;6.300;2023-07-20T13:22:17;28.70;44.70
12477;DHT22;6303;51.504;6.300;2023-07-20T13:24:47;28.60;44.80
12477;DHT22;6303;51.504;6.300;2023-07-20T13:27:16;28.60;45.00
12477;DHT22;6303;51.504;6.300;2023-07-20T13:29:43;28.60;44.90
12477;DHT22;6303;51.504;6.300;2023-07-20T13:32:13;28.60;45.00
12477;DHT22;6303;51.504;6.300;2023-07-20T13:34:41;28.60;44.80
12477;DHT22;6303;51.504;6.300;2023-07-20T13:37:08;28.50;44.90
12477;DHT22;6303;51.504;6.300;2023-07-20T13:39:37;28.50;45.00
12477;DHT22;6303;51.504;6.300;2023-07-20T13:42:04;28.50;45.20
12477;DHT22;6303;51.504;6.300;2023-07-20T13:44:32;28.90;45.60
12477;DHT22;6303;51.504;6.300;2023-07-20T13:46:59;29.20;45.90
12477;DHT22;6303;51.504;6.300;2023-07-20T13:49:27;28.50;45.60
12477;DHT22;6303;51.504;6.300;2023-07-20T13:51:55;28.50;45.50
12477;DHT22;6303;51.504;6.300;2023-07-20T13:54:22;28.50;45.40
12477;DHT22;6303;51.504;6.300;2023-07-20T13:56:51;28.50;45.70
12477;DHT22;6303;51.504;6.300;2023-07-20T13:59:18;28.50;45.70
12477;DHT22;6303;51.504;6.300;2023-07-20T14:01:46;28.50;45.90
12477;DHT22;6303;51.504;6.300;2023-07-20T14:04:13;28.50;46.10
12477;DHT22;6303;51.504;6.300;2023-07-20T14:06:40;28.50;46.00
12477;DHT22;6303;51.504;6.300;2023-07-20T14:09:07;28.60;45.50
12477;DHT22;6303;51.504;6.300;2023-07-20T14:11:34;28.50;45.30
12477;DHT22;6303;51.504;6.300;2023-07-20T14:14:03;28.50;45.30
12477;DHT22;6303;51.504;6.300;2023-07-20T14:16:30;28.50;45.30
12477;DHT22;6303;51.504;6.300;2023-07-20T14:18:58;28.50;45.50
12477;DHT22;6303;51.504;6.300;2023-07-20T14:21:25;28.50;45.60
12477;DHT22;6303;51.504;6.300;2023-07-20T14:23:53;28.50;46.00
12477;DHT22;6303;51.504;6.300;2023-07-20T14:26:20;28.50;45.90
12477;DHT22;6303;51.504;6.300;2023-07-20T14:28:47;28.50;45.80
12477;DHT22;6303;51.504;6.300;2023-07-20T14:31:15;28.50;45.60
12477;DHT22;6303;51.504;6.300;2023-07-20T14:33:42;28.50;45.90
12477;DHT22;6303;51.504;6.300;2023-07-20T14:36:09;28.50;45.90
12477;DHT22;6303;51.504;6.300;2023-07-20T14:38:36;28.50;46.00
12477;DHT22;6303;51.504;6.300;2023-07-20T14:41:03;28.50;46.00
12477;DHT22;6303;51.504;6.300;2023-07-20T14:43:31;28.50;46.00
12477;DHT22;6303;51.504;6.300;2023-07-20T14:45:58;28.50;46.00
12477;DHT22;6303;51.504;6.300;2023-07-20T14:48:27;28.50;46.20
12477;DHT22;6303;51.504;6.300;2023-07-20T14:50:54;28.60;46.20
12477;DHT22;6303;51.504;6.300;2023-07-20T14:53:21;28.60;46.00
12477;DHT22;6303;51.504;6.300;2023-07-20T14:55:48;28.60;46.00
12477;DHT22;6303;51.504;6.300;2023-07-20T14:58:15;28.60;45.60
12477;DHT22;6303;51.504;6.300;2023-07-20T15:00:42;28.50;45.30
12477;DHT22;6303;51.504;6.300;2023-07-20T15:03:09;28.50;45.20
12477;DHT22;6303;51.504;6.300;2023-07-20T15:05:38;28.50;45.30
12477;DHT22;6303;51.504;6.300;2023-07-20T15:08:05;28.50;45.30
12477;DHT22;6303;51.504;6.300;2023-07-20T15:10:34;28.50;45.10
12477;DHT22;6303;51.504;6.300;2023-07-20T15:13:01;28.50;45.00
12477;DHT22;6303;51.504;6.300;2023-07-20T15:15:29;28.50;45.00
12477;DHT22;6303;51.504;6.300;2023-07-20T15:17:56;28.50;44.90
12477;DHT22;6303;51.504;6.300;2023-07-20T15:20:23;28.50;44.90
12477;DHT22;6303;51.504;6.300;2023-07-20T15:22:51;28.50;45.20
12477;DHT22;6303;51.504;6.300;2023-07-20T15:25:19;28.60;45.50
12477;DHT22;6303;51.504;6.300;2023-07-20T15:27:48;28.60;45.50
12477;DHT22;6303;51.504;6.300;2023-07-20T15:30:15;28.60;45.10
12477;DHT22;6303;51.504;6.300;2023-07-20T15:32:42;28.50;44.80
12477;DHT22;6303;51.504;6.300;2023-07-20T15:35:09;28.50;44.70
12477;DHT22;6303;51.504;6.300;2023-07-20T15:37:37;28.50;44.60
12477;DHT22;6303;51.504;6.300;2023-07-20T15:40:06;28.50;44.60
12477;DHT22;6303;51.504;6.300;2023-07-20T15:42:34;28.50;44.70
12477;DHT22;6303;51.504;6.300;2023-07-20T15:45:01;28.50;44.80
12477;DHT22;6303;51.504;6.300;2023-07-20T15:47:28;28.50;44.80
12477;DHT22;6303;51.504;6.300;2023-07-20T15:49:55;28.50;44.90
12477;DHT22;6303;51.504;6.300;2023-07-20T15:52:22;28.50;45.00
12477;DHT22;6303;51.504;6.300;2023-07-20T15:54:49;28.50;44.80
12477;DHT22;6303;51.504;6.300;2023-07-20T15:57:18;28.50;44.80
12477;DHT22;6303;51.504;6.300;2023-07-20T15:59:46;28.50;44.50